De Haan, Belgium
Current Conditions -  °F | °C
As of 8:20 PM on Thursday 18 Dec 2014 (Local Time) from EBOS Reporting Station
Broken Clouds Broken Clouds  
Wind Chill: 54°   Ceiling: 1100
Heat Index: 54°   Visibility: 6mi
Dew Point: 52°   Wind: 25mph
Humidity: 94%   Direction: 240°WSW
Pressure: 29.91"   Gusts: 40mph
Location:  51.27°N, 3.03°E
Report Text: EBOS 181920Z 24022G35KT 9999 FEW009 BKN011 12/11 Q1013 TEMPO BKN008
Loading
Personal Weather Stations






























Interactive Weather Map New forecast layout! Learn more

10-Day Weather Forecast

Advertisements
Track Severe Weather on mobile